sensor_id;sensor_type;location;lat;lon;timestamp;pressure;altitude;pressure_sealevel;temperature;humidity
47811;BME280;33575;52.600;7.318;2023-04-28T00:01:56;101429.88;;;8.47;79.74
47811;BME280;33575;52.600;7.318;2023-04-28T00:04:27;101431.96;;;8.47;79.69
47811;BME280;33575;52.600;7.318;2023-04-28T00:06:57;101428.08;;;8.43;80.50
47811;BME280;33575;52.600;7.318;2023-04-28T00:09:27;101429.01;;;8.43;80.10
47811;BME280;33575;52.600;7.318;2023-04-28T00:11:58;101421.12;;;8.38;80.99
47811;BME280;33575;52.600;7.318;2023-04-28T00:14:28;101414.90;;;8.37;80.58
47811;BME280;33575;52.600;7.318;2023-04-28T00:16:58;101414.45;;;8.42;79.84
47811;BME280;33575;52.600;7.318;2023-04-28T00:19:28;101409.89;;;8.40;80.01
47811;BME280;33575;52.600;7.318;2023-04-28T00:21:58;101399.24;;;8.42;80.20
47811;BME280;33575;52.600;7.318;2023-04-28T00:24:29;101401.90;;;8.38;80.79
47811;BME280;33575;52.600;7.318;2023-04-28T00:26:59;101396.10;;;8.38;80.38
47811;BME280;33575;52.600;7.318;2023-04-28T00:29:29;101390.20;;;8.39;79.99
47811;BME280;33575;52.600;7.318;2023-04-28T00:32:00;101384.22;;;8.41;79.96
47811;BME280;33575;52.600;7.318;2023-04-28T00:34:32;101377.18;;;8.45;79.69
47811;BME280;33575;52.600;7.318;2023-04-28T00:37:01;101374.44;;;8.48;79.44
47811;BME280;33575;52.600;7.318;2023-04-28T00:39:31;101366.30;;;8.51;79.33
47811;BME280;33575;52.600;7.318;2023-04-28T00:42:02;101360.23;;;8.54;79.08
47811;BME280;33575;52.600;7.318;2023-04-28T00:44:33;101353.44;;;8.53;79.07
47811;BME280;33575;52.600;7.318;2023-04-28T00:47:03;101348.86;;;8.52;79.08
47811;BME280;33575;52.600;7.318;2023-04-28T00:49:33;101346.52;;;8.47;79.66
47811;BME280;33575;52.600;7.318;2023-04-28T00:52:05;101340.34;;;8.40;79.38
47811;BME280;33575;52.600;7.318;2023-04-28T00:54:34;101334.02;;;8.39;79.24
47811;BME280;33575;52.600;7.318;2023-04-28T00:57:04;101329.74;;;8.32;79.93
47811;BME280;33575;52.600;7.318;2023-04-28T00:59:34;101326.10;;;8.33;79.77
47811;BME280;33575;52.600;7.318;2023-04-28T01:02:05;101323.61;;;8.30;79.82
47811;BME280;33575;52.600;7.318;2023-04-28T01:04:36;101321.52;;;8.25;79.75
47811;BME280;33575;52.600;7.318;2023-04-28T01:07:06;101318.86;;;8.26;79.61
47811;BME280;33575;52.600;7.318;2023-04-28T01:09:36;101318.85;;;8.28;79.21
47811;BME280;33575;52.600;7.318;2023-04-28T01:12:07;101317.87;;;8.31;78.97
47811;BME280;33575;52.600;7.318;2023-04-28T01:14:37;101316.52;;;8.30;79.37
47811;BME280;33575;52.600;7.318;2023-04-28T01:17:07;101313.28;;;8.29;79.32
47811;BME280;33575;52.600;7.318;2023-04-28T01:19:38;101308.83;;;8.26;79.16
47811;BME280;33575;52.600;7.318;2023-04-28T01:22:08;101303.51;;;8.20;79.72
47811;BME280;33575;52.600;7.318;2023-04-28T01:24:39;101301.25;;;8.19;79.56
47811;BME280;33575;52.600;7.318;2023-04-28T01:27:10;101297.03;;;8.16;79.58
47811;BME280;33575;52.600;7.318;2023-04-28T01:29:41;101297.06;;;8.14;79.39
47811;BME280;33575;52.600;7.318;2023-04-28T01:32:10;101293.43;;;8.16;79.11
47811;BME280;33575;52.600;7.318;2023-04-28T01:34:41;101290.27;;;8.18;79.23
47811;BME280;33575;52.600;7.318;2023-04-28T01:37:11;101283.98;;;8.20;79.11
47811;BME280;33575;52.600;7.318;2023-04-28T01:39:42;101276.38;;;8.24;78.86
47811;BME280;33575;52.600;7.318;2023-04-28T01:42:12;101270.42;;;8.25;78.97
47811;BME280;33575;52.600;7.318;2023-04-28T01:44:42;101262.67;;;8.25;78.90
47811;BME280;33575;52.600;7.318;2023-04-28T01:47:13;101260.91;;;8.22;79.76
47811;BME280;33575;52.600;7.318;2023-04-28T01:49:44;101255.77;;;8.22;79.05
47811;BME280;33575;52.600;7.318;2023-04-28T01:52:14;101252.51;;;8.23;78.88
47811;BME280;33575;52.600;7.318;2023-04-28T01:54:44;101248.32;;;8.21;79.39
47811;BME280;33575;52.600;7.318;2023-04-28T01:57:16;101244.25;;;8.21;78.81
47811;BME280;33575;52.600;7.318;2023-04-28T01:59:44;101241.04;;;8.19;79.12
47811;BME280;33575;52.600;7.318;2023-04-28T02:02:15;101237.06;;;8.19;78.99
47811;BME280;33575;52.600;7.318;2023-04-28T02:04:45;101235.54;;;8.20;78.85
47811;BME280;33575;52.600;7.318;2023-04-28T02:07:16;101239.96;;;8.18;79.27
47811;BME280;33575;52.600;7.318;2023-04-28T02:09:47;101236.93;;;8.16;78.85
47811;BME280;33575;52.600;7.318;2023-04-28T02:12:16;101236.25;;;8.16;78.87
47811;BME280;33575;52.600;7.318;2023-04-28T02:14:47;101232.63;;;8.15;78.70
47811;BME280;33575;52.600;7.318;2023-04-28T02:17:17;101229.86;;;8.11;78.98
47811;BME280;33575;52.600;7.318;2023-04-28T02:19:47;101230.93;;;8.10;78.99
47811;BME280;33575;52.600;7.318;2023-04-28T02:22:18;101228.75;;;8.09;79.00
47811;BME280;33575;52.600;7.318;2023-04-28T02:24:49;101225.29;;;8.11;78.88
47811;BME280;33575;52.600;7.318;2023-04-28T02:27:20;101226.06;;;8.12;78.62
47811;BME280;33575;52.600;7.318;2023-04-28T02:29:50;101225.05;;;8.11;78.55
47811;BME280;33575;52.600;7.318;2023-04-28T02:32:20;101223.87;;;8.13;78.67
47811;BME280;33575;52.600;7.318;2023-04-28T02:34:52;101223.62;;;8.09;78.75
47811;BME280;33575;52.600;7.318;2023-04-28T02:37:21;101220.45;;;8.08;78.81
47811;BME280;33575;52.600;7.318;2023-04-28T02:39:51;101219.98;;;8.09;78.54
47811;BME280;33575;52.600;7.318;2023-04-28T02:42:22;101216.39;;;8.14;78.44
47811;BME280;33575;52.600;7.318;2023-04-28T02:44:53;101214.65;;;8.16;78.33
47811;BME280;33575;52.600;7.318;2023-04-28T02:47:23;101210.66;;;8.21;78.25
47811;BME280;33575;52.600;7.318;2023-04-28T02:49:53;101202.13;;;8.16;78.31
47811;BME280;33575;52.600;7.318;2023-04-28T02:52:24;101196.41;;;8.16;78.38
47811;BME280;33575;52.600;7.318;2023-04-28T02:54:54;101187.78;;;8.16;78.06
47811;BME280;33575;52.600;7.318;2023-04-28T02:57:24;101181.82;;;8.12;78.12
47811;BME280;33575;52.600;7.318;2023-04-28T02:59:54;101174.62;;;7.99;78.63
47811;BME280;33575;52.600;7.318;2023-04-28T03:02:25;101174.72;;;8.02;78.31
47811;BME280;33575;52.600;7.318;2023-04-28T03:04:55;101174.69;;;8.02;78.13
47811;BME280;33575;52.600;7.318;2023-04-28T03:07:25;101172.96;;;7.99;78.41
47811;BME280;33575;52.600;7.318;2023-04-28T03:09:55;101173.02;;;7.97;78.22
47811;BME280;33575;52.600;7.318;2023-04-28T03:12:26;101172.03;;;7.96;78.23
47811;BME280;33575;52.600;7.318;2023-04-28T03:14:56;101166.47;;;7.90;78.24
47811;BME280;33575;52.600;7.318;2023-04-28T03:17:27;101161.63;;;7.89;78.00
47811;BME280;33575;52.600;7.318;2023-04-28T03:19:57;101160.68;;;7.89;77.88
47811;BME280;33575;52.600;7.318;2023-04-28T03:22:27;101157.94;;;7.89;77.74
47811;BME280;33575;52.600;7.318;2023-04-28T03:24:58;101153.40;;;7.90;77.74
47811;BME280;33575;52.600;7.318;2023-04-28T03:27:28;101150.99;;;7.91;77.61
47811;BME280;33575;52.600;7.318;2023-04-28T03:29:59;101148.85;;;7.93;77.64
47811;BME280;33575;52.600;7.318;2023-04-28T03:32:29;101142.39;;;7.91;77.55
47811;BME280;33575;52.600;7.318;2023-04-28T03:35:00;101135.41;;;7.85;77.41
47811;BME280;33575;52.600;7.318;2023-04-28T03:37:30;101131.87;;;7.78;77.63
47811;BME280;33575;52.600;7.318;2023-04-28T03:40:01;101130.41;;;7.72;77.74
47811;BME280;33575;52.600;7.318;2023-04-28T03:42:31;101130.67;;;7.66;77.65
47811;BME280;33575;52.600;7.318;2023-04-28T03:45:02;101131.58;;;7.60;77.89
47811;BME280;33575;52.600;7.318;2023-04-28T03:47:32;101128.11;;;7.57;78.26
47811;BME280;33575;52.600;7.318;2023-04-28T03:50:03;101125.13;;;7.55;78.13
47811;BME280;33575;52.600;7.318;2023-04-28T03:52:33;101120.24;;;7.53;78.55
47811;BME280;33575;52.600;7.318;2023-04-28T03:55:04;101116.82;;;7.52;78.04
47811;BME280;33575;52.600;7.318;2023-04-28T03:57:34;101119.80;;;7.56;77.89
47811;BME280;33575;52.600;7.318;2023-04-28T04:00:06;101117.27;;;7.57;77.70
47811;BME280;33575;52.600;7.318;2023-04-28T04:02:35;101115.96;;;7.56;77.83
47811;BME280;33575;52.600;7.318;2023-04-28T04:05:06;101117.89;;;7.55;77.72
47811;BME280;33575;52.600;7.318;2023-04-28T04:07:35;101115.71;;;7.55;77.91
47811;BME280;33575;52.600;7.318;2023-04-28T04:10:07;101112.46;;;7.54;77.69
47811;BME280;33575;52.600;7.318;2023-04-28T04:12:37;101112.84;;;7.56;77.54
47811;BME280;33575;52.600;7.318;2023-04-28T04:15:08;101105.06;;;7.58;77.39
47811;BME280;33575;52.600;7.318;2023-04-28T04:17:38;101102.38;;;7.59;77.41
47811;BME280;33575;52.600;7.318;2023-04-28T04:20:09;101102.10;;;7.57;77.43
47811;BME280;33575;52.600;7.318;2023-04-28T04:22:39;101100.28;;;7.52;77.57
47811;BME280;33575;52.600;7.318;2023-04-28T04:25:09;101100.87;;;7.49;77.30
47811;BME280;33575;52.600;7.318;2023-04-28T04:27:39;101095.62;;;7.46;77.49
47811;BME280;33575;52.600;7.318;2023-04-28T04:30:10;101093.48;;;7.44;77.51
47811;BME280;33575;52.600;7.318;2023-04-28T04:32:40;101089.62;;;7.43;77.72
47811;BME280;33575;52.600;7.318;2023-04-28T04:35:11;101088.86;;;7.39;77.80
47811;BME280;33575;52.600;7.318;2023-04-28T04:37:42;101084.37;;;7.37;77.87
47811;BME280;33575;52.600;7.318;2023-04-28T04:40:12;101085.69;;;7.33;78.47
47811;BME280;33575;52.600;7.318;2023-04-28T04:42:42;101082.81;;;7.34;78.25
47811;BME280;33575;52.600;7.318;2023-04-28T04:45:12;101082.55;;;7.34;78.44
47811;BME280;33575;52.600;7.318;2023-04-28T04:47:43;101077.52;;;7.31;78.78
47811;BME280;33575;52.600;7.318;2023-04-28T04:50:14;101078.18;;;7.28;78.95
47811;BME280;33575;52.600;7.318;2023-04-28T04:52:44;101077.88;;;7.31;79.16
47811;BME280;33575;52.600;7.318;2023-04-28T04:55:15;101080.08;;;7.37;78.67
47811;BME280;33575;52.600;7.318;2023-04-28T04:57:46;101075.35;;;7.42;78.51
47811;BME280;33575;52.600;7.318;2023-04-28T05:00:17;101070.75;;;7.47;78.86
47811;BME280;33575;52.600;7.318;2023-04-28T05:02:46;101066.37;;;7.54;78.58
47811;BME280;33575;52.600;7.318;2023-04-28T05:05:21;101069.38;;;7.62;78.50
47811;BME280;33575;52.600;7.318;2023-04-28T05:07:47;101070.87;;;7.62;78.44
47811;BME280;33575;52.600;7.318;2023-04-28T05:10:17;101069.44;;;7.63;78.44
47811;BME280;33575;52.600;7.318;2023-04-28T05:12:50;101070.51;;;7.64;78.26
47811;BME280;33575;52.600;7.318;2023-04-28T05:15:18;101074.71;;;7.64;78.32
47811;BME280;33575;52.600;7.318;2023-04-28T05:17:49;101072.08;;;7.65;78.43
47811;BME280;33575;52.600;7.318;2023-04-28T05:20:19;101066.00;;;7.69;78.20
47811;BME280;33575;52.600;7.318;2023-04-28T05:22:50;101067.37;;;7.69;78.13
47811;BME280;33575;52.600;7.318;2023-04-28T05:25:20;101058.64;;;7.71;78.42
47811;BME280;33575;52.600;7.318;2023-04-28T05:27:51;101056.09;;;7.74;78.40
47811;BME280;33575;52.600;7.318;2023-04-28T05:30:21;101054.79;;;7.77;78.31
47811;BME280;33575;52.600;7.318;2023-04-28T05:32:52;101052.31;;;7.75;79.06
47811;BME280;33575;52.600;7.318;2023-04-28T05:35:21;101052.65;;;7.85;78.31
47811;BME280;33575;52.600;7.318;2023-04-28T05:37:52;101053.92;;;7.89;78.16
47811;BME280;33575;52.600;7.318;2023-04-28T05:40:22;101054.19;;;7.94;78.08
47811;BME280;33575;52.600;7.318;2023-04-28T05:42:53;101052.00;;;7.96;78.09
47811;BME280;33575;52.600;7.318;2023-04-28T05:45:24;101051.43;;;8.00;78.09
47811;BME280;33575;52.600;7.318;2023-04-28T05:47:53;101042.55;;;8.04;78.09
47811;BME280;33575;52.600;7.318;2023-04-28T05:50:24;101037.29;;;8.07;78.00
47811;BME280;33575;52.600;7.318;2023-04-28T05:52:54;101036.09;;;8.06;78.21
47811;BME280;33575;52.600;7.318;2023-04-28T05:55:25;101035.17;;;8.10;78.32
47811;BME280;33575;52.600;7.318;2023-04-28T05:57:55;101035.71;;;8.15;78.12
47811;BME280;33575;52.600;7.318;2023-04-28T06:00:26;101038.21;;;8.12;78.27
47811;BME280;33575;52.600;7.318;2023-04-28T06:02:56;101037.35;;;8.17;78.05
47811;BME280;33575;52.600;7.318;2023-04-28T06:05:26;101035.50;;;8.20;77.94
47811;BME280;33575;52.600;7.318;2023-04-28T06:07:56;101035.22;;;8.23;77.83
47811;BME280;33575;52.600;7.318;2023-04-28T06:10:27;101032.29;;;8.25;78.32
47811;BME280;33575;52.600;7.318;2023-04-28T06:12:57;101036.58;;;8.29;78.27
47811;BME280;33575;52.600;7.318;2023-04-28T06:15:27;101031.19;;;8.32;77.92
47811;BME280;33575;52.600;7.318;2023-04-28T06:17:58;101028.95;;;8.33;78.33
47811;BME280;33575;52.600;7.318;2023-04-28T06:20:28;101031.65;;;8.38;78.69
47811;BME280;33575;52.600;7.318;2023-04-28T06:22:58;101032.34;;;8.40;79.13
47811;BME280;33575;52.600;7.318;2023-04-28T06:25:29;101027.66;;;8.45;79.12
47811;BME280;33575;52.600;7.318;2023-04-28T06:27:59;101027.11;;;8.51;79.33
47811;BME280;33575;52.600;7.318;2023-04-28T06:30:30;101020.22;;;8.55;79.82
47811;BME280;33575;52.600;7.318;2023-04-28T06:33:00;101015.32;;;8.62;79.87
47811;BME280;33575;52.600;7.318;2023-04-28T06:35:31;101012.69;;;8.67;80.00
47811;BME280;33575;52.600;7.318;2023-04-28T06:38:02;101010.81;;;8.70;80.44
47811;BME280;33575;52.600;7.318;2023-04-28T06:40:32;101012.28;;;8.73;80.92
47811;BME280;33575;52.600;7.318;2023-04-28T06:43:03;101014.10;;;8.82;80.01
47811;BME280;33575;52.600;7.318;2023-04-28T06:45:33;101014.15;;;8.90;79.71
47811;BME280;33575;52.600;7.318;2023-04-28T06:48:04;101016.02;;;8.96;79.81
47811;BME280;33575;52.600;7.318;2023-04-28T06:50:35;101015.68;;;9.04;79.53
47811;BME280;33575;52.600;7.318;2023-04-28T06:53:04;101014.09;;;9.10;79.87
47811;BME280;33575;52.600;7.318;2023-04-28T06:55:35;101015.63;;;9.14;79.94
47811;BME280;33575;52.600;7.318;2023-04-28T06:58:05;101016.41;;;9.17;80.11
47811;BME280;33575;52.600;7.318;2023-04-28T07:00:36;101015.63;;;9.20;79.66
47811;BME280;33575;52.600;7.318;2023-04-28T07:03:07;101015.62;;;9.26;79.66
47811;BME280;33575;52.600;7.318;2023-04-28T07:05:37;101018.26;;;9.33;79.50
47811;BME280;33575;52.600;7.318;2023-04-28T07:08:07;101018.43;;;9.40;79.26
47811;BME280;33575;52.600;7.318;2023-04-28T07:10:38;101015.38;;;9.44;79.13
47811;BME280;33575;52.600;7.318;2023-04-28T07:13:09;101011.09;;;9.49;79.14
47811;BME280;33575;52.600;7.318;2023-04-28T07:15:39;101011.85;;;9.52;79.39
47811;BME280;33575;52.600;7.318;2023-04-28T07:18:10;101010.93;;;9.57;79.71
47811;BME280;33575;52.600;7.318;2023-04-28T07:20:40;101014.56;;;9.66;79.28
47811;BME280;33575;52.600;7.318;2023-04-28T07:23:10;101012.55;;;9.76;79.30
47811;BME280;33575;52.600;7.318;2023-04-28T07:25:41;101014.96;;;9.82;79.10
47811;BME280;33575;52.600;7.318;2023-04-28T07:28:12;101015.14;;;9.90;79.11
47811;BME280;33575;52.600;7.318;2023-04-28T07:30:42;101011.38;;;9.99;79.15
47811;BME280;33575;52.600;7.318;2023-04-28T07:33:12;101009.63;;;10.02;79.61
47811;BME280;33575;52.600;7.318;2023-04-28T07:35:42;101009.55;;;10.03;79.89
47811;BME280;33575;52.600;7.318;2023-04-28T07:38:12;101011.28;;;10.08;79.61
47811;BME280;33575;52.600;7.318;2023-04-28T07:40:42;101011.10;;;10.15;79.60
47811;BME280;33575;52.600;7.318;2023-04-28T07:43:13;101008.98;;;10.19;79.26
47811;BME280;33575;52.600;7.318;2023-04-28T07:45:43;101012.32;;;10.23;79.37
47811;BME280;33575;52.600;7.318;2023-04-28T07:48:13;101010.82;;;10.31;78.84
47811;BME280;33575;52.600;7.318;2023-04-28T07:50:43;101009.15;;;10.36;78.80
47811;BME280;33575;52.600;7.318;2023-04-28T07:53:15;101010.59;;;10.42;79.40
47811;BME280;33575;52.600;7.318;2023-04-28T07:55:44;101007.65;;;10.47;79.27
47811;BME280;33575;52.600;7.318;2023-04-28T07:58:14;101005.34;;;10.52;78.53
47811;BME280;33575;52.600;7.318;2023-04-28T08:00:44;101002.13;;;10.59;78.69
47811;BME280;33575;52.600;7.318;2023-04-28T08:03:15;100997.80;;;10.65;78.73
47811;BME280;33575;52.600;7.318;2023-04-28T08:05:45;100995.98;;;10.73;78.56
47811;BME280;33575;52.600;7.318;2023-04-28T08:08:16;100992.97;;;10.81;78.84
47811;BME280;33575;52.600;7.318;2023-04-28T08:10:46;100987.70;;;10.83;78.84
47811;BME280;33575;52.600;7.318;2023-04-28T08:13:17;100980.87;;;10.80;78.61
47811;BME280;33575;52.600;7.318;2023-04-28T08:15:47;100973.34;;;10.80;78.82
47811;BME280;33575;52.600;7.318;2023-04-28T08:18:18;100968.68;;;10.83;79.07
47811;BME280;33575;52.600;7.318;2023-04-28T08:20:48;100973.42;;;10.86;79.54
47811;BME280;33575;52.600;7.318;2023-04-28T08:23:19;100976.78;;;10.86;79.86
47811;BME280;33575;52.600;7.318;2023-04-28T08:25:49;100976.11;;;10.97;79.45
47811;BME280;33575;52.600;7.318;2023-04-28T08:28:20;100973.60;;;11.04;79.71
47811;BME280;33575;52.600;7.318;2023-04-28T08:30:50;100969.88;;;11.18;79.97
47811;BME280;33575;52.600;7.318;2023-04-28T08:33:20;100963.95;;;11.33;80.04
47811;BME280;33575;52.600;7.318;2023-04-28T08:35:50;100962.13;;;11.46;80.49
47811;BME280;33575;52.600;7.318;2023-04-28T08:38:23;100962.67;;;11.56;79.84
47811;BME280;33575;52.600;7.318;2023-04-28T08:40:51;100963.50;;;11.64;79.50
47811;BME280;33575;52.600;7.318;2023-04-28T08:43:22;100962.32;;;11.74;79.17
47811;BME280;33575;52.600;7.318;2023-04-28T08:45:52;100962.63;;;11.79;79.63
47811;BME280;33575;52.600;7.318;2023-04-28T08:48:22;100956.23;;;11.89;81.08
47811;BME280;33575;52.600;7.318;2023-04-28T08:50:53;100958.70;;;12.04;79.77
47811;BME280;33575;52.600;7.318;2023-04-28T08:53:24;100960.76;;;12.09;79.25
47811;BME280;33575;52.600;7.318;2023-04-28T08:55:55;100960.32;;;12.21;79.05
47811;BME280;33575;52.600;7.318;2023-04-28T08:58:25;100963.24;;;12.28;78.75
47811;BME280;33575;52.600;7.318;2023-04-28T09:00:55;100966.30;;;12.25;78.64
47811;BME280;33575;52.600;7.318;2023-04-28T09:03:25;100967.91;;;12.22;78.52
47811;BME280;33575;52.600;7.318;2023-04-28T09:05:55;100965.64;;;12.24;78.52
47811;BME280;33575;52.600;7.318;2023-04-28T09:08:26;100963.53;;;12.21;78.63
47811;BME280;33575;52.600;7.318;2023-04-28T09:13:27;100957.32;;;12.15;79.85
47811;BME280;33575;52.600;7.318;2023-04-28T09:15:59;100955.26;;;12.11;79.64
47811;BME280;33575;52.600;7.318;2023-04-28T09:18:27;100950.57;;;12.10;79.79
47811;BME280;33575;52.600;7.318;2023-04-28T09:21:03;100943.79;;;12.21;79.76
47811;BME280;33575;52.600;7.318;2023-04-28T09:23:28;100943.88;;;12.22;81.02
47811;BME280;33575;52.600;7.318;2023-04-28T09:26:00;100943.28;;;12.22;81.22
47811;BME280;33575;52.600;7.318;2023-04-28T09:28:29;100941.58;;;12.19;82.64
47811;BME280;33575;52.600;7.318;2023-04-28T09:31:00;100942.83;;;12.21;83.04
47811;BME280;33575;52.600;7.318;2023-04-28T09:33:30;100944.46;;;12.29;82.46
47811;BME280;33575;52.600;7.318;2023-04-28T09:36:01;100948.42;;;12.34;83.35
47811;BME280;33575;52.600;7.318;2023-04-28T09:38:31;100949.41;;;12.41;82.92
47811;BME280;33575;52.600;7.318;2023-04-28T09:41:01;100951.40;;;12.42;83.29
47811;BME280;33575;52.600;7.318;2023-04-28T09:43:33;100953.23;;;12.50;83.09
47811;BME280;33575;52.600;7.318;2023-04-28T09:46:04;100953.63;;;12.60;82.33
47811;BME280;33575;52.600;7.318;2023-04-28T09:48:34;100952.16;;;12.63;82.37
47811;BME280;33575;52.600;7.318;2023-04-28T09:51:05;100949.90;;;12.63;81.86
47811;BME280;33575;52.600;7.318;2023-04-28T09:53:34;100947.36;;;12.58;82.32
47811;BME280;33575;52.600;7.318;2023-04-28T09:56:04;100944.33;;;12.57;82.42
47811;BME280;33575;52.600;7.318;2023-04-28T09:58:39;100946.63;;;12.54;82.25
47811;BME280;33575;52.600;7.318;2023-04-28T10:01:05;100942.70;;;12.60;81.57
47811;BME280;33575;52.600;7.318;2023-04-28T10:03:35;100938.59;;;12.69;81.39
47811;BME280;33575;52.600;7.318;2023-04-28T10:06:05;100937.09;;;12.67;81.32
47811;BME280;33575;52.600;7.318;2023-04-28T10:08:37;100937.73;;;12.67;81.26
47811;BME280;33575;52.600;7.318;2023-04-28T10:11:07;100932.86;;;12.68;81.86
47811;BME280;33575;52.600;7.318;2023-04-28T10:13:37;100928.75;;;12.72;81.51
47811;BME280;33575;52.600;7.318;2023-04-28T10:16:08;100929.96;;;12.78;81.69
47811;BME280;33575;52.600;7.318;2023-04-28T10:18:38;100928.54;;;12.81;81.46
47811;BME280;33575;52.600;7.318;2023-04-28T10:21:09;100931.34;;;12.86;81.38
47811;BME280;33575;52.600;7.318;2023-04-28T10:26:11;100924.47;;;12.89;80.84
47811;BME280;33575;52.600;7.318;2023-04-28T10:28:45;100918.31;;;12.85;80.57
47811;BME280;33575;52.600;7.318;2023-04-28T10:31:11;100910.93;;;12.83;80.96
47811;BME280;33575;52.600;7.318;2023-04-28T10:33:41;100901.73;;;12.84;81.41
47811;BME280;33575;52.600;7.318;2023-04-28T10:36:10;100888.97;;;12.84;81.81
47811;BME280;33575;52.600;7.318;2023-04-28T10:43:41;100872.61;;;13.23;82.21
47811;BME280;33575;52.600;7.318;2023-04-28T10:46:11;100870.07;;;13.29;82.60
47811;BME280;33575;52.600;7.318;2023-04-28T10:48:52;100873.77;;;13.50;82.44
47811;BME280;33575;52.600;7.318;2023-04-28T10:51:21;100867.15;;;13.62;81.69
47811;BME280;33575;52.600;7.318;2023-04-28T10:56:15;100871.62;;;13.91;79.76
47811;BME280;33575;52.600;7.318;2023-04-28T10:58:44;100869.59;;;13.99;79.55
47811;BME280;33575;52.600;7.318;2023-04-28T11:03:48;100865.21;;;14.11;80.77
47811;BME280;33575;52.600;7.318;2023-04-28T11:06:19;100866.44;;;14.28;79.91
47811;BME280;33575;52.600;7.318;2023-04-28T11:08:46;100855.07;;;14.38;80.42
47811;BME280;33575;52.600;7.318;2023-04-28T11:11:18;100857.56;;;14.49;80.39
47811;BME280;33575;52.600;7.318;2023-04-28T11:13:47;100850.99;;;14.69;81.24
47811;BME280;33575;52.600;7.318;2023-04-28T11:16:20;100844.32;;;14.92;80.57
47811;BME280;33575;52.600;7.318;2023-04-28T11:18:49;100837.83;;;15.04;80.26
47811;BME280;33575;52.600;7.318;2023-04-28T11:21:18;100841.05;;;15.30;80.26
47811;BME280;33575;52.600;7.318;2023-04-28T11:23:48;100837.40;;;15.55;79.71
47811;BME280;33575;52.600;7.318;2023-04-28T11:26:19;100836.84;;;15.68;77.83
47811;BME280;33575;52.600;7.318;2023-04-28T11:28:50;100834.44;;;15.69;76.65
47811;BME280;33575;52.600;7.318;2023-04-28T11:31:20;100832.24;;;15.72;77.44
47811;BME280;33575;52.600;7.318;2023-04-28T11:33:53;100828.52;;;15.64;77.59
47811;BME280;33575;52.600;7.318;2023-04-28T11:36:26;100828.20;;;15.64;77.21
47811;BME280;33575;52.600;7.318;2023-04-28T11:38:49;100829.76;;;15.65;77.58
47811;BME280;33575;52.600;7.318;2023-04-28T11:41:19;100824.03;;;15.72;77.19
47811;BME280;33575;52.600;7.318;2023-04-28T11:43:50;100826.82;;;15.82;76.90
47811;BME280;33575;52.600;7.318;2023-04-28T11:46:22;100830.21;;;15.98;77.11
47811;BME280;33575;52.600;7.318;2023-04-28T11:48:59;100824.53;;;16.16;77.03
47811;BME280;33575;52.600;7.318;2023-04-28T11:51:29;100822.84;;;16.23;76.91
47811;BME280;33575;52.600;7.318;2023-04-28T11:53:51;100825.34;;;16.26;76.57
47811;BME280;33575;52.600;7.318;2023-04-28T11:56:21;100825.85;;;16.27;76.71
47811;BME280;33575;52.600;7.318;2023-04-28T11:59:00;100823.79;;;16.23;76.31
47811;BME280;33575;52.600;7.318;2023-04-28T12:01:22;100823.52;;;16.08;77.87
47811;BME280;33575;52.600;7.318;2023-04-28T12:03:53;100823.61;;;16.05;77.90
47811;BME280;33575;52.600;7.318;2023-04-28T12:06:23;100820.32;;;15.97;78.04
47811;BME280;33575;52.600;7.318;2023-04-28T12:08:53;100820.86;;;15.92;78.91
47811;BME280;33575;52.600;7.318;2023-04-28T12:11:26;100820.09;;;15.94;78.16
47811;BME280;33575;52.600;7.318;2023-04-28T12:14:03;100814.40;;;15.87;78.53
47811;BME280;33575;52.600;7.318;2023-04-28T12:18:57;100805.71;;;15.63;79.61
47811;BME280;33575;52.600;7.318;2023-04-28T12:21:25;100800.75;;;15.58;79.03
47811;BME280;33575;52.600;7.318;2023-04-28T12:23:55;100806.85;;;15.45;79.88
47811;BME280;33575;52.600;7.318;2023-04-28T12:26:26;100807.42;;;15.45;79.29
47811;BME280;33575;52.600;7.318;2023-04-28T12:28:56;100804.88;;;15.45;79.16
47811;BME280;33575;52.600;7.318;2023-04-28T12:31:26;100803.32;;;15.48;79.27
47811;BME280;33575;52.600;7.318;2023-04-28T12:33:57;100804.37;;;15.47;79.91
47811;BME280;33575;52.600;7.318;2023-04-28T12:36:27;100801.71;;;15.43;81.63
47811;BME280;33575;52.600;7.318;2023-04-28T12:38:58;100795.31;;;15.33;82.21
47811;BME280;33575;52.600;7.318;2023-04-28T12:41:28;100799.94;;;15.33;82.16
47811;BME280;33575;52.600;7.318;2023-04-28T12:43:59;100797.80;;;15.36;82.19
47811;BME280;33575;52.600;7.318;2023-04-28T12:46:29;100795.79;;;15.36;82.60
47811;BME280;33575;52.600;7.318;2023-04-28T12:48:59;100789.94;;;15.39;83.90
47811;BME280;33575;52.600;7.318;2023-04-28T12:51:30;100789.48;;;15.51;82.74
47811;BME280;33575;52.600;7.318;2023-04-28T12:54:01;100792.93;;;15.53;83.84
47811;BME280;33575;52.600;7.318;2023-04-28T12:56:31;100785.02;;;15.42;83.29
47811;BME280;33575;52.600;7.318;2023-04-28T12:59:01;100783.81;;;15.37;82.98
47811;BME280;33575;52.600;7.318;2023-04-28T13:01:32;100787.54;;;15.34;83.49
47811;BME280;33575;52.600;7.318;2023-04-28T13:04:03;100786.88;;;15.31;84.41
47811;BME280;33575;52.600;7.318;2023-04-28T13:06:33;100787.49;;;15.31;84.32
47811;BME280;33575;52.600;7.318;2023-04-28T13:09:04;100787.56;;;15.35;83.92
47811;BME280;33575;52.600;7.318;2023-04-28T13:11:34;100786.64;;;15.32;83.76
47811;BME280;33575;52.600;7.318;2023-04-28T13:14:05;100784.81;;;15.36;84.74
47811;BME280;33575;52.600;7.318;2023-04-28T13:16:35;100786.67;;;15.40;83.68
47811;BME280;33575;52.600;7.318;2023-04-28T13:19:05;100779.51;;;15.42;83.45
47811;BME280;33575;52.600;7.318;2023-04-28T13:21:37;100775.88;;;15.42;83.77
47811;BME280;33575;52.600;7.318;2023-04-28T13:24:06;100775.10;;;15.43;83.80
47811;BME280;33575;52.600;7.318;2023-04-28T13:26:36;100774.00;;;15.38;84.08
47811;BME280;33575;52.600;7.318;2023-04-28T13:29:06;100773.01;;;15.44;84.06